Time;durP1;ratioP1;P1;durP2;ratioP2;P2;SDS_P1;SDS_P2;PMS_P1;PMS_P2;Temp;Humidity;BMP_temperature;BMP_pressure;BME280_temperature;BME280_humidity;BME280_pressure;Samples;Min_cycle;Max_cycle;Signal;HPM_P1;HPM_P2
2023/05/26 00:01:20;;;;;;;;;;;14.60;59.90;;;10.23;100.00;95992.25;4993538;28;19917;-47
2023/05/26 00:03:48;;;;;;;;;;;14.60;60.00;;;10.18;100.00;95998.31;4991330;28;19917;-48
2023/05/26 00:06:20;;;;;;;;;;;14.60;60.00;;;10.19;100.00;95991.97;4989215;28;20020;-48
2023/05/26 00:08:47;;;;;;;;;;;14.60;60.10;;;10.19;100.00;95997.28;4993597;28;20328;-47
2023/05/26 00:11:13;;;;;;;;;;;14.50;60.20;;;10.17;100.00;95989.53;4992013;28;20004;-49
2023/05/26 00:13:39;;;;;;;;;;;14.50;60.20;;;10.17;100.00;95996.72;4993235;28;20013;-47
2023/05/26 00:16:05;;;;;;;;;;;14.50;60.30;;;10.10;100.00;95994.28;4987044;28;19910;-47
2023/05/26 00:18:31;;;;;;;;;;;14.50;60.40;;;10.13;100.00;95985.78;4989584;28;19917;-47
2023/05/26 00:20:57;;;;;;;;;;;14.40;60.40;;;10.11;100.00;95984.41;4993273;28;20280;-49
2023/05/26 00:23:23;;;;;;;;;;;14.40;60.60;;;10.07;100.00;95989.44;4991829;28;19909;-47
2023/05/26 00:25:49;;;;;;;;;;;14.40;60.60;;;10.12;100.00;95988.69;5002849;28;19913;-46
2023/05/26 00:28:16;;;;;;;;;;;14.40;60.70;;;10.06;100.00;95984.34;4995227;28;19960;-47
2023/05/26 00:30:41;;;;;;;;;;;14.40;60.70;;;10.04;100.00;95986.47;4993144;28;20378;-46
2023/05/26 00:33:07;;;;;;;;;;;14.30;60.80;;;10.03;100.00;95988.34;4993146;28;20008;-46
2023/05/26 00:35:33;;;;;;;;;;;14.30;60.80;;;10.01;100.00;95990.44;4984401;28;19913;-47
2023/05/26 00:37:59;;;;;;;;;;;14.30;60.90;;;9.99;100.00;95989.09;4988957;28;20023;-47
2023/05/26 00:40:25;;;;;;;;;;;14.30;60.90;;;10.00;100.00;95990.69;4985210;28;19937;-48
2023/05/26 00:42:50;;;;;;;;;;;14.30;61.00;;;9.96;100.00;95983.22;4989233;28;20485;-48
2023/05/26 00:45:16;;;;;;;;;;;14.30;61.00;;;9.91;100.00;95977.84;4992928;28;19917;-48
2023/05/26 00:47:42;;;;;;;;;;;14.30;61.10;;;9.90;100.00;95978.91;4991460;28;20071;-49
2023/05/26 00:50:12;;;;;;;;;;;14.20;61.10;;;9.90;100.00;95978.91;5002440;28;19932;-46
2023/05/26 00:52:40;;;;;;;;;;;14.20;61.20;;;9.88;100.00;95983.66;4992788;28;20007;-46
2023/05/26 00:55:08;;;;;;;;;;;14.20;61.20;;;9.86;100.00;95984.97;5003281;28;19917;-48
2023/05/26 00:57:34;;;;;;;;;;;14.20;61.20;;;9.84;100.00;95981.72;4988650;28;20008;-47
2023/05/26 01:00:00;;;;;;;;;;;14.10;61.20;;;9.82;100.00;95983.84;4983754;28;19967;-47
2023/05/26 01:02:28;;;;;;;;;;;14.10;61.30;;;9.75;100.00;95985.91;5006589;28;20293;-47
2023/05/26 01:04:54;;;;;;;;;;;14.10;61.30;;;9.75;100.00;95983.25;4990854;28;19936;-46
2023/05/26 01:07:21;;;;;;;;;;;14.10;61.40;;;9.76;100.00;95975.00;4991990;28;20341;-48
2023/05/26 01:09:50;;;;;;;;;;;14.10;61.50;;;9.76;100.00;95984.84;4989921;28;20464;-48
2023/05/26 01:12:57;;;;;;;;;;;14.00;61.50;;;9.84;100.00;95977.25;4989382;28;19944;-47
2023/05/26 01:15:51;;;;;;;;;;;14.10;61.70;;;9.89;100.00;95982.59;5004598;28;19909;-47
2023/05/26 01:18:31;;;;;;;;;;;14.00;61.80;;;9.79;100.00;95976.38;4986962;28;20003;-47
2023/05/26 01:21:06;;;;;;;;;;;14.00;61.90;;;9.76;100.00;95971.56;5007124;28;19909;-46
2023/05/26 01:24:02;;;;;;;;;;;14.00;61.80;;;9.75;100.00;95970.75;5003113;28;20376;-48
2023/05/26 01:27:00;;;;;;;;;;;14.00;61.90;;;9.77;100.00;95975.81;4991641;28;20380;-48
2023/05/26 01:29:29;;;;;;;;;;;14.00;62.00;;;9.73;100.00;95960.34;4988866;28;19916;-46
2023/05/26 01:32:14;;;;;;;;;;;14.00;62.20;;;9.75;100.00;95967.28;4992025;28;19909;-47
2023/05/26 01:34:40;;;;;;;;;;;14.00;62.20;;;9.77;100.00;95965.16;4984866;28;19976;-50
2023/05/26 01:37:06;;;;;;;;;;;14.00;62.40;;;9.80;100.00;95968.13;4991800;28;20315;-49
2023/05/26 01:39:34;;;;;;;;;;;14.00;62.50;;;9.87;100.00;95968.75;4991673;28;19909;-52
2023/05/26 01:42:21;;;;;;;;;;;14.10;62.60;;;10.04;100.00;95970.50;4996162;28;20012;-51
2023/05/26 01:45:16;;;;;;;;;;;14.10;62.80;;;10.15;100.00;95969.53;5006472;28;20016;-48
2023/05/26 01:47:46;;;;;;;;;;;14.20;63.00;;;10.22;100.00;95977.34;4987618;28;19914;-47
2023/05/26 01:50:13;;;;;;;;;;;14.30;64.00;;;10.26;100.00;95983.78;4990760;28;19913;-47
2023/05/26 01:52:43;;;;;;;;;;;14.30;63.10;;;10.32;100.00;95974.81;5005643;28;20004;-47
2023/05/26 01:55:12;;;;;;;;;;;14.40;63.10;;;10.40;100.00;95976.97;4998884;28;19917;-47
2023/05/26 01:57:41;;;;;;;;;;;14.50;64.00;;;10.50;100.00;95979.75;4990081;28;20079;-46
2023/05/26 02:00:12;;;;;;;;;;;14.50;63.20;;;10.57;100.00;95990.19;5006808;28;20368;-50
2023/05/26 02:02:37;;;;;;;;;;;14.60;63.20;;;10.61;100.00;95988.63;4991380;28;19917;-47
2023/05/26 02:05:03;;;;;;;;;;;14.70;63.30;;;10.65;100.00;95992.38;4990412;28;19971;-48
2023/05/26 02:07:29;;;;;;;;;;;14.70;63.20;;;10.67;100.00;95990.28;5004728;28;20438;-46
2023/05/26 02:09:55;;;;;;;;;;;14.80;63.10;;;10.76;100.00;95995.94;4991424;28;19913;-48
2023/05/26 02:12:21;;;;;;;;;;;14.80;63.10;;;10.79;100.00;95992.75;4992475;28;19921;-51
2023/05/26 02:14:47;;;;;;;;;;;14.90;63.20;;;10.84;100.00;95988.28;4995656;28;20325;-49
2023/05/26 02:17:13;;;;;;;;;;;14.90;63.10;;;10.88;100.00;95993.91;4986103;28;19920;-49
2023/05/26 02:19:40;;;;;;;;;;;15.00;63.10;;;10.94;100.00;95992.06;4995765;28;19916;-53
2023/05/26 02:22:06;;;;;;;;;;;15.00;63.10;;;11.00;100.00;95985.69;4994449;28;20329;-49
2023/05/26 02:24:32;;;;;;;;;;;15.10;63.10;;;11.04;100.00;95987.59;4993562;28;20028;-49
2023/05/26 02:26:58;;;;;;;;;;;15.10;63.00;;;11.08;100.00;95983.34;4994956;28;19909;-50
2023/05/26 02:29:23;;;;;;;;;;;15.20;63.10;;;11.09;100.00;95984.16;4991516;28;20387;-49
2023/05/26 02:31:52;;;;;;;;;;;15.20;63.00;;;11.10;100.00;95986.56;4995459;28;19967;-50
2023/05/26 02:34:18;;;;;;;;;;;15.20;62.90;;;11.12;100.00;95986.31;4994431;28;19913;-48
2023/05/26 02:36:44;;;;;;;;;;;15.20;62.90;;;11.08;100.00;95983.34;4995040;28;20442;-48
2023/05/26 02:39:09;;;;;;;;;;;15.20;62.80;;;11.08;100.00;95987.88;4995267;28;20076;-47
2023/05/26 02:41:35;;;;;;;;;;;15.20;62.80;;;11.08;100.00;95982.56;4983705;28;19910;-47
2023/05/26 02:44:03;;;;;;;;;;;15.20;62.80;;;11.11;100.00;95987.38;5007678;28;19970;-48
2023/05/26 02:46:29;;;;;;;;;;;15.20;62.80;;;11.13;100.00;95982.59;4984466;28;19940;-50
2023/05/26 02:48:55;;;;;;;;;;;15.30;62.90;;;11.14;100.00;95986.06;4991575;28;20007;-48
2023/05/26 02:51:20;;;;;;;;;;;15.30;62.80;;;11.16;100.00;95981.28;4994647;28;19913;-48
2023/05/26 02:53:46;;;;;;;;;;;15.30;62.80;;;11.12;100.00;95983.63;4989975;28;19918;-46
2023/05/26 02:56:12;;;;;;;;;;;15.30;63.60;;;11.13;100.00;95987.91;4995056;28;19924;-46
2023/05/26 02:58:38;;;;;;;;;;;15.30;62.70;;;11.17;100.00;95988.22;4993495;28;19936;-48
2023/05/26 03:01:04;;;;;;;;;;;15.30;62.80;;;11.17;100.00;95991.66;4993517;28;19909;-47
2023/05/26 03:03:30;;;;;;;;;;;15.30;62.80;;;11.17;100.00;95991.66;4994474;28;19920;-54
2023/05/26 03:05:57;;;;;;;;;;;15.30;62.80;;;11.18;100.00;95995.94;4988930;28;19922;-46
2023/05/26 03:08:23;;;;;;;;;;;15.30;62.70;;;11.16;100.00;95994.63;4994174;28;19945;-49
2023/05/26 03:10:49;;;;;;;;;;;15.40;62.80;;;11.08;100.00;95995.88;4993622;28;19945;-47
2023/05/26 03:13:14;;;;;;;;;;;15.30;62.60;;;11.08;100.00;95994.00;4994654;28;19913;-45
2023/05/26 03:15:42;;;;;;;;;;;15.30;62.70;;;11.08;100.00;95993.22;4993556;28;20355;-49
2023/05/26 03:18:08;;;;;;;;;;;15.30;62.60;;;11.02;100.00;95991.56;4993963;28;19919;-46
2023/05/26 03:20:33;;;;;;;;;;;15.20;62.60;;;10.99;100.00;95992.09;4994737;28;19913;-46
2023/05/26 03:22:59;;;;;;;;;;;15.20;62.60;;;10.94;100.00;95992.88;4990032;28;20366;-47
2023/05/26 03:25:25;;;;;;;;;;;15.20;62.60;;;10.91;100.00;95989.91;4993465;28;19972;-46
2023/05/26 03:27:51;;;;;;;;;;;15.20;62.60;;;10.84;100.00;95982.13;4992656;28;19917;-52
2023/05/26 03:30:16;;;;;;;;;;;15.10;62.60;;;10.80;100.00;95981.03;4994520;28;19909;-45
2023/05/26 03:32:42;;;;;;;;;;;15.10;62.70;;;10.77;100.00;95979.69;4993878;28;19917;-48
2023/05/26 03:35:08;;;;;;;;;;;15.00;62.60;;;10.76;100.00;95975.41;4993182;28;19967;-45
2023/05/26 03:37:34;;;;;;;;;;;15.00;62.70;;;10.78;100.00;95980.47;4994279;28;19909;-48
2023/05/26 03:40:00;;;;;;;;;;;15.00;62.80;;;10.80;100.00;95986.38;4990086;28;19917;-47
2023/05/26 03:42:25;;;;;;;;;;;15.00;62.80;;;10.76;100.00;95982.63;4992674;28;19909;-48
2023/05/26 03:44:51;;;;;;;;;;;15.00;62.90;;;10.78;100.00;95988.47;4993916;28;20368;-46
2023/05/26 03:47:17;;;;;;;;;;;15.00;62.90;;;10.78;100.00;95993.81;4990844;28;19910;-46
2023/05/26 03:49:42;;;;;;;;;;;15.00;63.00;;;10.79;100.00;95990.91;4993526;28;20005;-46
2023/05/26 03:52:08;;;;;;;;;;;15.00;63.10;;;10.80;100.00;95994.34;4992689;28;19917;-48
2023/05/26 03:54:34;;;;;;;;;;;15.00;63.10;;;10.84;100.00;95998.09;4993762;28;19918;-48
2023/05/26 03:57:01;;;;;;;;;;;15.00;63.10;;;10.87;100.00;96005.59;4993712;28;19917;-48
2023/05/26 03:59:27;;;;;;;;;;;15.10;63.10;;;10.86;100.00;95996.81;4992248;28;19996;-49
2023/05/26 04:01:53;;;;;;;;;;;15.10;63.10;;;10.88;100.00;96012.56;4993264;28;19996;-54
2023/05/26 04:04:18;;;;;;;;;;;15.10;63.00;;;10.87;100.00;96002.94;4987511;28;19914;-46
2023/05/26 04:06:44;;;;;;;;;;;15.10;63.00;;;10.87;100.00;96003.75;4992149;28;19909;-46
2023/05/26 04:09:10;;;;;;;;;;;15.10;63.00;;;10.85;100.00;96002.41;4993415;28;20440;-46
2023/05/26 04:11:36;;;;;;;;;;;15.20;62.90;;;10.84;100.00;96006.09;4992185;28;19923;-48
2023/05/26 04:14:01;;;;;;;;;;;15.20;62.90;;;10.82;100.00;96017.03;4993349;28;19910;-45
2023/05/26 04:16:27;;;;;;;;;;;15.20;62.80;;;10.77;100.00;96006.31;4990703;28;19949;-47
2023/05/26 04:18:53;;;;;;;;;;;15.20;62.80;;;10.79;100.00;96008.75;4993028;28;20332;-47
2023/05/26 04:21:19;;;;;;;;;;;15.20;62.80;;;10.76;100.00;96010.06;4998043;28;20382;-46
2023/05/26 04:23:51;;;;;;;;;;;15.20;62.80;;;10.76;100.00;96012.72;4989371;28;19931;-46
2023/05/26 04:26:18;;;;;;;;;;;15.20;62.70;;;10.81;100.00;96014.59;4993318;28;20004;-48
2023/05/26 04:28:47;;;;;;;;;;;15.20;62.70;;;10.92;100.00;96005.63;4983729;28;19914;-46
2023/05/26 04:31:16;;;;;;;;;;;15.30;62.80;;;11.07;100.00;96010.28;4992849;28;19917;-46
2023/05/26 04:33:44;;;;;;;;;;;15.40;62.80;;;11.23;100.00;96016.50;4992388;28;19913;-47
2023/05/26 04:36:10;;;;;;;;;;;15.50;62.90;;;11.40;100.00;96016.31;4992183;28;19929;-45
2023/05/26 04:38:41;;;;;;;;;;;15.60;62.80;;;11.59;100.00;96025.50;4992593;28;19909;-50
2023/05/26 04:41:07;;;;;;;;;;;15.70;62.80;;;11.75;100.00;96016.50;4991993;28;20012;-46
2023/05/26 04:43:34;;;;;;;;;;;15.80;62.70;;;11.85;100.00;96021.09;4992762;28;20422;-46
2023/05/26 04:46:02;;;;;;;;;;;15.90;62.60;;;12.04;100.00;96024.91;4989089;28;19918;-47
2023/05/26 04:48:28;;;;;;;;;;;16.10;62.60;;;12.16;100.00;96021.19;4987636;28;19915;-47
2023/05/26 04:50:54;;;;;;;;;;;16.30;62.50;;;12.25;100.00;96023.09;4992814;28;19963;-47
2023/05/26 04:53:20;;;;;;;;;;;16.40;62.30;;;12.39;100.00;96026.06;4980026;28;19945;-46
2023/05/26 04:55:47;;;;;;;;;;;16.60;62.20;;;12.60;100.00;96018.88;4992509;28;19920;-43
2023/05/26 04:58:13;;;;;;;;;;;16.70;62.10;;;12.67;100.00;96021.28;4988463;28;19941;-43
2023/05/26 05:00:39;;;;;;;;;;;16.90;62.00;;;12.82;100.00;96025.81;5007492;28;19909;-48
2023/05/26 05:03:05;;;;;;;;;;;17.00;61.80;;;12.98;100.00;96034.66;4992467;28;19909;-45
2023/05/26 05:05:31;;;;;;;;;;;17.20;61.70;;;13.16;100.00;96039.41;4984229;28;20272;-45
2023/05/26 05:07:57;;;;;;;;;;;17.40;61.60;;;13.31;99.16;96035.97;4992425;28;20327;-45
2023/05/26 05:10:23;;;;;;;;;;;17.60;61.50;;;13.47;98.19;96034.06;4985661;28;20369;-47
2023/05/26 05:12:49;;;;;;;;;;;17.70;61.30;;;13.59;97.07;96038.03;4988128;28;19998;-44
2023/05/26 05:15:15;;;;;;;;;;;17.90;61.10;;;13.80;96.02;96038.78;4992328;28;19916;-48
2023/05/26 05:17:41;;;;;;;;;;;18.10;61.00;;;13.92;94.20;96030.44;4990723;28;19914;-47
2023/05/26 05:20:07;;;;;;;;;;;18.30;60.70;;;13.97;91.49;96033.06;4992463;28;19910;-47
2023/05/26 05:22:33;;;;;;;;;;;18.40;60.40;;;14.16;91.45;96040.47;4991010;28;19959;-46
2023/05/26 05:24:59;;;;;;;;;;;18.60;60.30;;;14.28;88.69;96039.06;4992025;28;20011;-46
2023/05/26 05:27:25;;;;;;;;;;;18.80;60.00;;;14.43;87.61;96038.19;4991813;28;19920;-45
2023/05/26 05:29:50;;;;;;;;;;;18.90;59.80;;;14.54;86.43;96031.72;4998566;28;19909;-49
2023/05/26 05:32:16;;;;;;;;;;;19.10;59.60;;;14.67;85.14;96035.66;4996495;28;19916;-51
2023/05/26 05:34:42;;;;;;;;;;;19.30;59.40;;;14.85;84.20;96038.72;4990918;28;19963;-46
2023/05/26 05:37:08;;;;;;;;;;;19.50;59.20;;;15.00;82.82;96035.94;4992057;28;19967;-46
2023/05/26 05:39:33;;;;;;;;;;;19.70;59.00;;;15.11;81.68;96037.47;4991500;28;19971;-51
2023/05/26 05:41:59;;;;;;;;;;;19.80;58.80;;;15.20;80.74;96041.13;4986970;28;19936;-46
2023/05/26 05:44:25;;;;;;;;;;;20.00;58.50;;;15.38;80.00;96046.84;4991585;28;20011;-45
2023/05/26 05:46:51;;;;;;;;;;;20.20;58.30;;;15.60;78.69;96044.47;4981814;28;19909;-48
2023/05/26 05:49:17;;;;;;;;;;;20.40;58.10;;;15.61;78.12;96043.41;4991502;28;19916;-47
2023/05/26 05:51:43;;;;;;;;;;;20.60;57.80;;;15.68;77.39;96045.78;4990277;28;19913;-46
2023/05/26 05:54:09;;;;;;;;;;;20.70;57.40;;;15.80;77.77;96045.38;4991952;28;19909;-51
2023/05/26 05:56:34;;;;;;;;;;;20.90;57.20;;;15.83;76.93;96048.28;4991526;28;19910;-45
2023/05/26 05:59:00;;;;;;;;;;;21.00;57.00;;;15.86;76.53;96053.09;4990191;28;19921;-47
2023/05/26 06:01:26;;;;;;;;;;;21.10;56.70;;;15.93;74.84;96056.22;4991537;28;20327;-47
2023/05/26 06:03:51;;;;;;;;;;;21.30;56.40;;;16.03;75.23;96066.06;4990991;28;19960;-52
2023/05/26 06:06:17;;;;;;;;;;;21.40;56.10;;;16.11;75.11;96056.56;4991782;28;19917;-48
2023/05/26 06:08:43;;;;;;;;;;;21.50;55.90;;;16.31;72.61;96058.19;4991416;28;20360;-46
2023/05/26 06:11:10;;;;;;;;;;;21.60;55.80;;;16.31;71.32;96058.97;4979888;28;19910;-45
2023/05/26 06:13:36;;;;;;;;;;;21.80;55.60;;;16.43;72.76;96074.69;4991499;28;19917;-46
2023/05/26 06:16:02;;;;;;;;;;;21.90;55.20;;;16.49;71.14;96065.47;4989934;28;19921;-46
2023/05/26 06:18:28;;;;;;;;;;;22.00;55.00;;;16.64;70.26;96072.53;4991243;28;19984;-45
2023/05/26 06:20:53;;;;;;;;;;;22.20;54.80;;;16.76;70.41;96082.88;4991453;28;19909;-46
2023/05/26 06:23:19;;;;;;;;;;;22.30;54.60;;;16.77;68.27;96079.09;4985192;28;19949;-47
2023/05/26 06:25:45;;;;;;;;;;;22.40;54.50;;;16.85;68.25;96083.81;4991398;28;20025;-47
2023/05/26 06:28:11;;;;;;;;;;;22.60;54.30;;;17.06;66.75;96078.91;4986746;28;20008;-46
2023/05/26 06:30:36;;;;;;;;;;;22.70;54.00;;;17.17;66.72;96085.72;4985843;28;19910;-48
2023/05/26 06:33:02;;;;;;;;;;;22.90;53.80;;;17.25;66.01;96090.44;4991617;28;19948;-46
2023/05/26 06:35:28;;;;;;;;;;;23.00;53.50;;;17.44;65.71;96089.59;4990486;28;20249;-46
2023/05/26 06:37:54;;;;;;;;;;;23.20;53.30;;;17.69;65.68;96099.13;4991052;28;20439;-46
2023/05/26 06:40:19;;;;;;;;;;;23.30;53.10;;;17.51;64.47;96098.88;4990539;28;19964;-45
2023/05/26 06:42:45;;;;;;;;;;;23.50;52.90;;;17.79;65.28;96099.75;4991459;28;19916;-45
2023/05/26 06:45:11;;;;;;;;;;;23.60;52.80;;;17.93;65.00;96104.38;4991091;28;19952;-52
2023/05/26 06:47:36;;;;;;;;;;;23.80;52.60;;;18.19;64.86;96100.09;4982868;28;20264;-46
2023/05/26 06:50:02;;;;;;;;;;;24.00;52.40;;;18.55;63.52;96093.13;4991091;28;19909;-45
2023/05/26 06:52:28;;;;;;;;;;;24.20;52.30;;;18.72;63.21;96099.53;4984549;28;19975;-47
2023/05/26 06:54:54;;;;;;;;;;;24.40;52.60;;;18.88;62.22;96100.00;4985695;28;19918;-46
2023/05/26 06:57:19;;;;;;;;;;;24.60;51.70;;;19.07;61.09;96099.81;4991635;28;19913;-48
2023/05/26 06:59:45;;;;;;;;;;;24.80;51.50;;;19.12;60.75;96096.22;4991129;28;19953;-47
2023/05/26 07:02:11;;;;;;;;;;;25.00;51.10;;;19.23;60.21;96096.75;4993414;28;19917;-46
2023/05/26 07:04:36;;;;;;;;;;;25.10;50.80;;;19.42;59.48;96097.34;4993142;28;19918;-46
2023/05/26 07:07:02;;;;;;;;;;;25.30;50.50;;;19.73;58.66;96094.72;4994769;28;19917;-46
2023/05/26 07:09:28;;;;;;;;;;;25.50;50.40;;;19.90;58.02;96099.41;4994323;28;20283;-46
2023/05/26 07:11:54;;;;;;;;;;;25.70;50.20;;;19.92;57.71;96102.59;4982866;28;19913;-52
2023/05/26 07:14:20;;;;;;;;;;;25.90;50.00;;;19.88;58.06;96099.72;4994786;28;19913;-46
2023/05/26 07:16:45;;;;;;;;;;;26.00;49.60;;;20.02;58.44;96101.50;4993333;28;20327;-47
2023/05/26 07:19:11;;;;;;;;;;;26.10;49.30;;;20.13;57.47;96097.44;4994117;28;20000;-47
2023/05/26 07:21:37;;;;;;;;;;;26.30;49.10;;;20.24;56.06;96103.34;4993864;28;19959;-56
2023/05/26 07:24:03;;;;;;;;;;;26.40;48.80;;;20.44;55.09;96099.28;4993569;28;19909;-48
2023/05/26 07:26:28;;;;;;;;;;;26.50;48.60;;;20.68;55.46;96106.97;4994494;28;19909;-47
2023/05/26 07:28:54;;;;;;;;;;;26.60;48.50;;;20.61;54.58;96096.63;4982969;28;20262;-46
2023/05/26 07:31:20;;;;;;;;;;;26.80;48.20;;;20.88;53.69;96108.28;4994584;28;19964;-47
2023/05/26 07:33:47;;;;;;;;;;;27.00;48.00;;;21.00;53.38;96103.03;4992436;28;19980;-49
2023/05/26 07:36:13;;;;;;;;;;;27.10;47.80;;;21.11;53.64;96090.75;4994281;28;20363;-46
2023/05/26 07:38:39;;;;;;;;;;;27.20;47.50;;;21.00;52.86;96095.69;4993399;28;19916;-48
2023/05/26 07:41:05;;;;;;;;;;;27.40;47.20;;;21.05;53.59;96093.94;4988470;28;20344;-46
2023/05/26 07:43:31;;;;;;;;;;;27.40;46.80;;;21.09;54.07;96098.41;5008286;28;19956;-49
2023/05/26 07:45:59;;;;;;;;;;;27.50;46.50;;;21.10;53.01;96093.78;4990900;28;19948;-47
2023/05/26 07:48:25;;;;;;;;;;;27.60;46.30;;;21.37;53.28;96098.91;4987189;28;20000;-48
2023/05/26 07:50:51;;;;;;;;;;;27.70;46.20;;;21.36;53.44;96086.44;4994021;28;19916;-49
2023/05/26 07:53:18;;;;;;;;;;;27.80;46.00;;;21.49;52.94;96090.88;4993766;28;20016;-46
2023/05/26 07:55:44;;;;;;;;;;;27.90;45.80;;;21.67;52.54;96094.34;5005381;28;19909;-46
2023/05/26 07:58:10;;;;;;;;;;;28.00;45.80;;;22.03;52.58;96098.56;4990316;28;19917;-47
2023/05/26 08:00:37;;;;;;;;;;;28.10;45.70;;;22.08;50.47;96097.56;4993603;28;20307;-50
2023/05/26 08:03:03;;;;;;;;;;;28.30;45.50;;;22.38;51.80;96101.16;4993837;28;20023;-47
2023/05/26 08:05:29;;;;;;;;;;;28.50;45.20;;;22.54;50.52;96104.09;4985567;28;19924;-48
2023/05/26 08:07:55;;;;;;;;;;;28.60;45.10;;;22.48;51.55;96103.47;4992936;28;19980;-50
2023/05/26 08:10:22;;;;;;;;;;;28.80;44.90;;;22.63;50.01;96102.13;4992547;28;19955;-50
2023/05/26 08:12:50;;;;;;;;;;;28.90;44.60;;;23.08;49.13;96105.00;4993600;28;19909;-46
2023/05/26 08:15:17;;;;;;;;;;;29.10;44.60;;;23.15;48.05;96104.47;4993229;28;20376;-44
2023/05/26 08:17:43;;;;;;;;;;;29.40;44.60;;;23.11;48.44;96098.13;4991068;28;20004;-48
2023/05/26 08:20:10;;;;;;;;;;;29.60;44.40;;;23.29;49.83;96098.75;4993443;28;19909;-47
2023/05/26 08:22:37;;;;;;;;;;;29.90;44.30;;;23.43;48.24;96101.97;4987557;28;20353;-47
2023/05/26 08:25:04;;;;;;;;;;;30.10;44.00;;;23.59;47.36;96104.84;4993390;28;20007;-46
2023/05/26 08:27:30;;;;;;;;;;;30.20;43.80;;;23.88;48.00;96094.97;4992858;28;20372;-46
2023/05/26 08:29:56;;;;;;;;;;;30.40;43.60;;;24.10;47.42;96105.47;4983708;28;19963;-50
2023/05/26 08:32:21;;;;;;;;;;;30.60;43.40;;;24.16;47.07;96095.94;4993307;28;19909;-45
2023/05/26 08:34:47;;;;;;;;;;;30.80;43.20;;;24.11;47.00;96095.38;4984111;28;19961;-45
2023/05/26 08:37:13;;;;;;;;;;;30.90;42.90;;;24.15;46.57;96099.00;4988549;28;19959;-46
2023/05/26 08:39:41;;;;;;;;;;;31.00;42.70;;;24.50;47.00;96101.28;4992558;28;19910;-50
2023/05/26 08:42:15;;;;;;;;;;;31.10;42.60;;;24.98;46.44;96103.16;5007407;28;20277;-45
2023/05/26 08:44:43;;;;;;;;;;;31.30;42.40;;;24.87;45.47;96094.66;5007443;28;19928;-46
2023/05/26 08:47:11;;;;;;;;;;;31.50;42.30;;;25.03;46.57;96097.44;4992049;28;19944;-45
2023/05/26 08:49:49;;;;;;;;;;;31.60;41.90;;;25.34;45.13;96109.63;4990364;28;19920;-49
2023/05/26 08:52:16;;;;;;;;;;;31.70;41.90;;;25.15;45.26;96091.19;5004629;28;19913;-46
2023/05/26 08:54:45;;;;;;;;;;;31.90;41.60;;;24.89;45.58;96092.38;5005104;28;20509;-45
2023/05/26 08:57:13;;;;;;;;;;;31.90;41.30;;;24.66;46.62;96094.81;4992425;28;19910;-44
2023/05/26 08:59:40;;;;;;;;;;;31.90;40.90;;;24.92;45.43;96099.88;4993628;28;20284;-47
2023/05/26 09:02:08;;;;;;;;;;;31.90;40.80;;;25.34;45.01;96098.72;4992128;28;19920;-47
2023/05/26 09:04:35;;;;;;;;;;;32.00;40.90;;;25.77;44.29;96091.72;4990145;28;19918;-45
2023/05/26 09:07:01;;;;;;;;;;;32.20;40.90;;;25.69;44.18;96098.91;5005256;28;20386;-47
2023/05/26 09:09:26;;;;;;;;;;;32.40;40.80;;;25.08;46.77;96097.22;4992489;28;20012;-46
2023/05/26 09:11:53;;;;;;;;;;;32.40;40.50;;;25.52;45.37;96085.59;4991172;28;19944;-49
2023/05/26 09:14:21;;;;;;;;;;;32.50;40.40;;;24.99;45.31;96093.81;4992527;28;20121;-49
2023/05/26 09:16:47;;;;;;;;;;;32.60;40.20;;;25.18;44.67;96098.69;4984227;28;20355;-46
2023/05/26 09:19:18;;;;;;;;;;;32.70;39.90;;;25.21;44.09;96091.75;4992007;28;19910;-47
2023/05/26 09:21:49;;;;;;;;;;;32.70;39.70;;;25.06;44.38;96090.50;4990968;28;19967;-49
2023/05/26 09:24:18;;;;;;;;;;;32.60;39.50;;;24.98;45.65;96097.69;4996878;28;20356;-46
2023/05/26 09:26:49;;;;;;;;;;;32.60;39.30;;;25.36;45.45;96110.09;4996806;28;19915;-47
2023/05/26 09:29:16;;;;;;;;;;;32.60;39.30;;;25.50;45.32;96096.84;4988080;28;19920;-45
2023/05/26 09:31:48;;;;;;;;;;;32.60;39.20;;;25.47;44.30;96094.81;4992175;28;20006;-46
2023/05/26 09:34:17;;;;;;;;;;;32.60;39.20;;;25.51;44.15;96086.72;4987799;28;19968;-47
2023/05/26 09:36:43;;;;;;;;;;;32.60;39.00;;;25.71;44.23;96091.16;4988027;28;19913;-47
2023/05/26 09:39:12;;;;;;;;;;;32.60;38.90;;;25.47;43.69;96089.34;4991516;28;19910;-45
2023/05/26 09:41:44;;;;;;;;;;;32.70;38.70;;;25.59;45.25;96089.28;4990984;28;19916;-47
2023/05/26 09:44:15;;;;;;;;;;;32.70;38.50;;;25.37;44.57;96093.38;4991467;28;19921;-45
2023/05/26 09:46:42;;;;;;;;;;;32.70;38.30;;;25.52;44.93;96088.31;4989070;28;20288;-45
2023/05/26 09:49:15;;;;;;;;;;;32.70;38.20;;;25.71;44.50;96091.16;4991223;28;19914;-45
2023/05/26 09:51:45;;;;;;;;;;;32.70;38.10;;;25.99;44.25;96087.63;4991387;28;19909;-48
2023/05/26 09:54:12;;;;;;;;;;;32.70;38.00;;;25.92;43.43;96088.25;4981773;28;19916;-45
2023/05/26 09:56:56;;;;;;;;;;;32.80;38.00;;;26.25;42.64;96089.81;4991790;28;20008;-46
2023/05/26 09:59:33;;;;;;;;;;;32.90;38.00;;;26.40;42.94;96080.81;4990314;28;19909;-49
2023/05/26 10:02:00;;;;;;;;;;;33.00;37.90;;;26.27;42.65;96087.53;4978714;28;19960;-45
2023/05/26 10:04:27;;;;;;;;;;;33.10;37.70;;;26.41;42.59;96079.66;5005028;28;19917;-46
2023/05/26 10:06:56;;;;;;;;;;;33.10;37.50;;;26.42;42.75;96078.53;4998032;28;20360;-48
2023/05/26 10:09:24;;;;;;;;;;;33.20;37.50;;;26.29;41.98;96082.50;4991220;28;19945;-50
2023/05/26 10:11:57;;;;;;;;;;;33.30;37.40;;;26.16;42.92;96070.09;5005531;28;19914;-47
2023/05/26 10:14:24;;;;;;;;;;;33.40;37.00;;;26.26;43.05;96085.94;5006144;28;20005;-50
2023/05/26 10:16:50;;;;;;;;;;;33.40;36.90;;;25.98;43.56;96084.09;4996768;28;20000;-45
2023/05/26 10:19:17;;;;;;;;;;;33.40;36.80;;;25.83;43.87;96084.88;4987307;28;20286;-47
2023/05/26 10:21:54;;;;;;;;;;;33.40;36.70;;;25.20;45.15;96074.59;4990575;28;19913;-51
2023/05/26 10:24:31;;;;;;;;;;;33.40;36.70;;;25.79;43.60;96075.75;4993421;28;19936;-46
2023/05/26 10:27:24;;;;;;;;;;;33.40;36.80;;;26.09;42.15;96078.91;4998938;28;19910;-49
2023/05/26 10:30:15;;;;;;;;;;;33.50;36.70;;;26.31;43.29;96067.34;4994890;28;19909;-50
2023/05/26 10:32:51;;;;;;;;;;;33.60;36.40;;;26.39;42.71;96078.44;5006177;28;19952;-46
2023/05/26 10:35:30;;;;;;;;;;;33.70;36.40;;;26.41;42.48;96076.13;4982244;28;19910;-48
2023/05/26 10:38:02;;;;;;;;;;;33.80;36.30;;;26.69;42.98;96067.84;4995086;28;19949;-50
2023/05/26 10:40:37;;;;;;;;;;;33.90;36.20;;;26.41;42.83;96065.22;4993741;28;19909;-46
2023/05/26 10:43:15;;;;;;;;;;;34.00;35.80;;;26.63;41.31;96072.00;4995232;28;20004;-46
2023/05/26 10:45:55;;;;;;;;;;;34.00;35.80;;;26.93;41.72;96059.38;4994669;28;19921;-47
2023/05/26 10:48:39;;;;;;;;;;;34.10;36.00;;;27.01;40.44;96049.38;4989988;28;19913;-45
2023/05/26 10:51:07;;;;;;;;;;;34.40;36.00;;;27.79;40.50;96055.59;4995178;28;19917;-45
2023/05/26 10:53:56;;;;;;;;;;;34.60;36.00;;;27.99;39.56;96050.09;4993980;28;20036;-47
2023/05/26 10:56:35;;;;;;;;;;;34.90;36.10;;;27.86;39.52;96055.75;4993209;28;20471;-49
2023/05/26 10:59:03;;;;;;;;;;;35.00;35.80;;;26.99;41.47;96049.75;4995104;28;19908;-46
2023/05/26 11:01:31;;;;;;;;;;;35.00;35.50;;;27.31;40.16;96055.09;4994729;28;19916;-46
2023/05/26 11:04:12;;;;;;;;;;;35.00;35.20;;;27.16;39.88;96047.75;4993989;28;19909;-46
2023/05/26 11:07:00;;;;;;;;;;;35.20;35.20;;;26.96;40.35;96038.75;4995546;28;20371;-46
2023/05/26 11:09:28;;;;;;;;;;;35.20;35.00;;;26.58;40.79;96043.03;4994132;28;20008;-46
2023/05/26 11:11:57;;;;;;;;;;;35.30;34.90;;;26.63;40.68;96045.47;4989261;28;20015;-46
2023/05/26 11:14:24;;;;;;;;;;;35.30;34.70;;;27.09;40.94;96050.31;4981463;28;19916;-46
2023/05/26 11:16:51;;;;;;;;;;;35.50;34.90;;;26.67;40.60;96043.63;4986186;28;20391;-49
2023/05/26 11:19:31;;;;;;;;;;;35.60;34.70;;;26.60;40.60;96046.16;4994941;28;20333;-46